Newcastle, Utah
Current Conditions -  °F | °C
As of 6:53 PM on Tuesday 21 Oct 2014 (Local Time) from KCDC Reporting Station
Clear Clear  
Wind Chill: 62°   Ceiling: Unl
Heat Index: 62°   Visibility: 10mi
Dew Point: 35°   Wind: 8mph
Humidity: 37%   Direction: 220°SW
Pressure: 29.99"   Gusts: NA
Location:  37.67°N, 113.55°W
Report Text: KCDC 220053Z AUTO 22007KT 10SM CLR 17/02 A2999 RMK AO2 SLP105 T01670017 TSNO
Loading
Personal Weather Stations






























Interactive Weather Map
Tropical Storm Tracking
New forecast layout! Learn more

10-Day Weather Forecast

Advertisements
Track Severe Weather on mobile